Time;durP1;ratioP1;P1;durP2;ratioP2;P2;SDS_P1;SDS_P2;PMS_P1;PMS_P2;Temp;Humidity;BMP_temperature;BMP_pressure;BME280_temperature;BME280_humidity;BME280_pressure;Samples;Min_cycle;Max_cycle;Signal;HPM_P1;HPM_P2
2023/06/13 00:01:48;;;;;;;3.20;2.90;;;;;;;;;;5072372;28;20179;-49
2023/06/13 00:04:21;;;;;;;8.27;2.97;;;;;;;;;;5072346;28;20302;-49
2023/06/13 00:06:47;;;;;;;5.20;2.87;;;;;;;;;;5072190;28;20546;-48
2023/06/13 00:09:13;;;;;;;2.93;2.73;;;;;;;;;;5072247;28;20378;-49
2023/06/13 00:11:39;;;;;;;4.73;3.23;;;;;;;;;;5071976;28;20276;-49
2023/06/13 00:14:05;;;;;;;3.10;2.80;;;;;;;;;;5071472;28;20294;-48
2023/06/13 00:16:31;;;;;;;3.27;2.97;;;;;;;;;;5072033;28;20201;-48
2023/06/13 00:18:58;;;;;;;4.57;2.90;;;;;;;;;;5072138;28;20211;-49
2023/06/13 00:21:24;;;;;;;3.67;2.93;;;;;;;;;;5071882;28;20639;-49
2023/06/13 00:23:50;;;;;;;3.10;2.77;;;;;;;;;;5071786;28;20286;-49
2023/06/13 00:26:16;;;;;;;3.50;2.97;;;;;;;;;;5071917;28;20210;-48
2023/06/13 00:28:42;;;;;;;3.20;2.90;;;;;;;;;;5071681;28;20217;-49
2023/06/13 00:31:08;;;;;;;3.60;2.70;;;;;;;;;;5071877;28;20230;-48
2023/06/13 00:33:34;;;;;;;3.20;2.90;;;;;;;;;;5071898;28;20202;-48
2023/06/13 00:36:02;;;;;;;2.97;2.67;;;;;;;;;;5071786;28;20604;-48
2023/06/13 00:38:28;;;;;;;4.13;2.80;;;;;;;;;;5071852;28;20618;-48
2023/06/13 00:40:55;;;;;;;3.40;2.93;;;;;;;;;;5071483;28;20561;-48
2023/06/13 00:43:21;;;;;;;5.73;3.20;;;;;;;;;;5071850;28;20202;-49
2023/06/13 00:45:47;;;;;;;5.07;2.80;;;;;;;;;;5071489;28;20320;-48
2023/06/13 00:48:13;;;;;;;3.67;2.90;;;;;;;;;;5071511;28;20788;-48
2023/06/13 00:50:46;;;;;;;3.30;3.00;;;;;;;;;;5071399;28;20578;-48
2023/06/13 00:53:17;;;;;;;6.43;3.00;;;;;;;;;;5071824;28;20206;-48
2023/06/13 00:55:44;;;;;;;3.17;2.87;;;;;;;;;;5071286;28;20206;-49
2023/06/13 00:58:11;;;;;;;3.63;3.10;;;;;;;;;;5071468;28;20205;-49
2023/06/13 01:00:38;;;;;;;4.30;2.87;;;;;;;;;;5071433;28;20678;-48
2023/06/13 01:03:09;;;;;;;3.67;2.77;;;;;;;;;;5071670;28;20263;-48
2023/06/13 01:05:35;;;;;;;2.83;2.60;;;;;;;;;;5071460;28;20218;-47
2023/06/13 01:08:02;;;;;;;3.40;3.10;;;;;;;;;;5071396;28;20206;-47
2023/06/13 01:10:30;;;;;;;6.30;2.83;;;;;;;;;;5071152;28;20233;-47
2023/06/13 01:13:00;;;;;;;3.73;2.90;;;;;;;;;;5071127;28;20214;-47
2023/06/13 01:15:29;;;;;;;3.07;2.87;;;;;;;;;;5071268;28;20581;-47
2023/06/13 01:18:00;;;;;;;3.93;2.73;;;;;;;;;;5071078;28;20220;-47
2023/06/13 01:20:27;;;;;;;4.07;2.90;;;;;;;;;;5071181;28;20209;-47
2023/06/13 01:22:57;;;;;;;2.97;2.73;;;;;;;;;;5071084;28;20208;-47
2023/06/13 01:25:29;;;;;;;2.90;2.70;;;;;;;;;;5070669;28;20302;-48
2023/06/13 01:27:57;;;;;;;3.70;2.77;;;;;;;;;;5071065;28;20204;-47
2023/06/13 01:30:23;;;;;;;2.97;2.67;;;;;;;;;;5071074;28;20271;-49
2023/06/13 01:32:51;;;;;;;3.67;2.70;;;;;;;;;;5071083;28;20205;-47
2023/06/13 01:35:17;;;;;;;3.47;2.60;;;;;;;;;;5070980;28;20187;-49
2023/06/13 01:37:43;;;;;;;3.00;2.80;;;;;;;;;;5071147;28;20206;-47
2023/06/13 01:40:09;;;;;;;3.70;2.60;;;;;;;;;;5070863;28;20697;-49
2023/06/13 01:42:35;;;;;;;3.63;3.00;;;;;;;;;;5071379;28;20224;-49
2023/06/13 01:45:03;;;;;;;5.03;2.60;;;;;;;;;;5070903;28;20229;-49
2023/06/13 01:47:32;;;;;;;3.90;2.43;;;;;;;;;;5071191;28;20292;-49
2023/06/13 01:50:05;;;;;;;3.30;2.70;;;;;;;;;;5071057;28;20202;-49
2023/06/13 01:52:34;;;;;;;2.70;2.47;;;;;;;;;;5070921;28;20316;-49
2023/06/13 01:55:08;;;;;;;2.90;2.50;;;;;;;;;;5070716;28;20205;-49
2023/06/13 01:57:37;;;;;;;3.80;2.67;;;;;;;;;;5070975;28;20216;-47
2023/06/13 02:00:06;;;;;;;3.27;2.97;;;;;;;;;;5070984;28;20193;-48
2023/06/13 02:02:32;;;;;;;3.00;2.40;;;;;;;;;;5070740;28;20195;-48
2023/06/13 02:04:58;;;;;;;2.70;2.50;;;;;;;;;;5070674;28;20238;-48
2023/06/13 02:07:24;;;;;;;3.00;2.70;;;;;;;;;;5070795;28;20231;-48
2023/06/13 02:09:50;;;;;;;2.97;2.70;;;;;;;;;;5070692;28;20200;-48
2023/06/13 02:12:16;;;;;;;3.83;2.57;;;;;;;;;;5070757;28;20225;-49
2023/06/13 02:14:42;;;;;;;4.97;2.50;;;;;;;;;;5070586;28;20201;-48
2023/06/13 02:17:12;;;;;;;3.17;2.73;;;;;;;;;;5070778;28;20254;-48
2023/06/13 02:19:38;;;;;;;2.60;2.40;;;;;;;;;;5070624;28;20240;-48
2023/06/13 02:22:04;;;;;;;2.80;2.60;;;;;;;;;;5070810;28;20197;-47
2023/06/13 02:24:30;;;;;;;3.70;2.50;;;;;;;;;;5070434;28;20260;-48
2023/06/13 02:26:56;;;;;;;2.67;2.47;;;;;;;;;;5070316;28;20209;-47
2023/06/13 02:29:22;;;;;;;3.07;2.70;;;;;;;;;;5070584;28;20637;-47
2023/06/13 02:31:48;;;;;;;2.80;2.53;;;;;;;;;;5070456;28;20311;-48
2023/06/13 02:34:16;;;;;;;2.93;2.70;;;;;;;;;;5070525;28;20284;-48
2023/06/13 02:36:42;;;;;;;3.17;2.50;;;;;;;;;;5071286;28;20397;-47
2023/06/13 02:39:08;;;;;;;3.17;2.40;;;;;;;;;;5074195;28;20200;-47
2023/06/13 02:41:34;;;;;;;3.73;2.70;;;;;;;;;;5074052;28;20246;-47
2023/06/13 02:44:00;;;;;;;2.57;2.37;;;;;;;;;;5073983;28;20264;-47
2023/06/13 02:46:26;;;;;;;2.43;2.23;;;;;;;;;;5073879;28;20227;-47
2023/06/13 02:48:52;;;;;;;2.67;2.47;;;;;;;;;;5073877;28;20239;-48
2023/06/13 02:51:19;;;;;;;2.67;2.47;;;;;;;;;;5073871;28;20219;-48
2023/06/13 02:53:45;;;;;;;5.10;2.70;;;;;;;;;;5073622;28;20576;-47
2023/06/13 02:56:12;;;;;;;3.20;2.60;;;;;;;;;;5073576;28;20907;-47
2023/06/13 02:58:38;;;;;;;2.83;2.60;;;;;;;;;;5073660;28;20195;-48
2023/06/13 03:01:04;;;;;;;2.93;2.60;;;;;;;;;;5073441;28;20271;-47
2023/06/13 03:03:30;;;;;;;4.07;2.57;;;;;;;;;;5073004;28;20201;-48
2023/06/13 03:05:56;;;;;;;2.90;2.60;;;;;;;;;;5071177;28;20442;-48
2023/06/13 03:08:24;;;;;;;5.43;2.97;;;;;;;;;;5073567;28;20672;-47
2023/06/13 03:10:50;;;;;;;4.77;2.40;;;;;;;;;;5073347;28;20299;-47
2023/06/13 03:13:16;;;;;;;3.00;2.70;;;;;;;;;;5073333;28;20195;-47
2023/06/13 03:15:45;;;;;;;5.67;2.90;;;;;;;;;;5073039;28;20197;-48
2023/06/13 03:18:11;;;;;;;3.13;2.83;;;;;;;;;;5072042;28;20432;-47
2023/06/13 03:20:37;;;;;;;4.27;2.73;;;;;;;;;;5073327;28;20274;-47
2023/06/13 03:23:03;;;;;;;2.70;2.50;;;;;;;;;;5073462;28;20193;-47
2023/06/13 03:25:31;;;;;;;2.73;2.53;;;;;;;;;;5072825;28;20247;-48
2023/06/13 03:27:57;;;;;;;2.87;2.57;;;;;;;;;;5073026;28;20396;-47
2023/06/13 03:30:23;;;;;;;2.60;2.40;;;;;;;;;;5073128;28;20227;-47
2023/06/13 03:32:54;;;;;;;3.90;2.50;;;;;;;;;;5073066;28;20200;-47
2023/06/13 03:35:20;;;;;;;4.30;2.50;;;;;;;;;;5073212;28;20570;-48
2023/06/13 03:37:46;;;;;;;4.00;2.80;;;;;;;;;;5072794;28;20203;-47
2023/06/13 03:40:13;;;;;;;3.40;2.67;;;;;;;;;;5072759;28;20242;-48
2023/06/13 03:42:40;;;;;;;3.20;2.23;;;;;;;;;;5072935;28;20188;-48
2023/06/13 03:45:06;;;;;;;3.27;2.60;;;;;;;;;;5072971;28;20203;-48
2023/06/13 03:47:32;;;;;;;4.80;2.60;;;;;;;;;;5072736;28;20200;-48
2023/06/13 03:49:58;;;;;;;3.80;2.53;;;;;;;;;;5072561;28;20202;-47
2023/06/13 03:52:24;;;;;;;2.60;2.40;;;;;;;;;;5072608;28;20273;-48
2023/06/13 03:54:51;;;;;;;3.90;2.40;;;;;;;;;;5072486;28;20686;-48
2023/06/13 03:57:17;;;;;;;3.83;2.70;;;;;;;;;;5072490;28;20608;-48
2023/06/13 03:59:44;;;;;;;3.30;2.70;;;;;;;;;;5072386;28;20204;-48
2023/06/13 04:02:13;;;;;;;4.63;2.70;;;;;;;;;;5072437;28;20195;-49
2023/06/13 04:04:42;;;;;;;3.23;2.70;;;;;;;;;;5072227;28;20273;-48
2023/06/13 04:07:08;;;;;;;2.90;2.60;;;;;;;;;;5072503;28;20279;-48
2023/06/13 04:09:34;;;;;;;2.87;2.57;;;;;;;;;;5072426;28;20276;-48
2023/06/13 04:12:00;;;;;;;2.67;2.47;;;;;;;;;;5072309;28;20566;-48
2023/06/13 04:14:26;;;;;;;3.27;2.53;;;;;;;;;;5072188;28;20192;-48
2023/06/13 04:16:53;;;;;;;2.43;2.23;;;;;;;;;;5072066;28;20604;-48
2023/06/13 04:19:20;;;;;;;2.77;2.47;;;;;;;;;;5072203;28;20210;-48
2023/06/13 04:21:46;;;;;;;4.57;2.23;;;;;;;;;;5071932;28;20249;-48
2023/06/13 04:24:15;;;;;;;2.50;2.30;;;;;;;;;;5071849;28;20244;-48
2023/06/13 04:26:41;;;;;;;3.87;2.83;;;;;;;;;;5072049;28;20199;-48
2023/06/13 04:29:07;;;;;;;4.57;2.80;;;;;;;;;;5072151;28;20200;-48
2023/06/13 04:31:35;;;;;;;3.53;2.30;;;;;;;;;;5071907;28;20223;-48
2023/06/13 04:34:03;;;;;;;3.33;2.40;;;;;;;;;;5071671;28;20244;-48
2023/06/13 04:36:32;;;;;;;2.83;2.47;;;;;;;;;;5071742;28;20203;-48
2023/06/13 04:39:06;;;;;;;3.20;2.30;;;;;;;;;;5071549;28;20225;-47
2023/06/13 04:41:35;;;;;;;2.70;2.27;;;;;;;;;;5071661;28;20215;-48
2023/06/13 04:44:09;;;;;;;3.97;2.70;;;;;;;;;;5071466;28;20278;-47
2023/06/13 04:46:36;;;;;;;2.90;2.60;;;;;;;;;;5071650;28;20200;-48
2023/06/13 04:49:08;;;;;;;3.03;2.73;;;;;;;;;;5071423;28;20208;-48
2023/06/13 04:51:34;;;;;;;3.07;2.63;;;;;;;;;;5071557;28;20733;-49
2023/06/13 04:54:00;;;;;;;4.63;2.67;;;;;;;;;;5071361;28;20654;-48
2023/06/13 04:56:27;;;;;;;9.00;3.03;;;;;;;;;;5071269;28;20287;-48
2023/06/13 04:58:53;;;;;;;7.27;2.80;;;;;;;;;;5071100;28;20200;-48
2023/06/13 05:01:19;;;;;;;4.33;2.60;;;;;;;;;;5071310;28;20239;-48
2023/06/13 05:03:45;;;;;;;4.97;2.50;;;;;;;;;;5071165;28;20665;-48
2023/06/13 05:06:13;;;;;;;4.67;2.40;;;;;;;;;;5071402;28;20207;-48
2023/06/13 05:08:39;;;;;;;3.60;2.93;;;;;;;;;;5071243;28;20284;-47
2023/06/13 05:11:05;;;;;;;5.40;2.50;;;;;;;;;;5071116;28;20249;-49
2023/06/13 05:13:31;;;;;;;3.47;3.17;;;;;;;;;;5070895;28;20245;-48
2023/06/13 05:15:57;;;;;;;4.07;3.10;;;;;;;;;;5070937;28;20554;-47
2023/06/13 05:18:29;;;;;;;2.93;2.50;;;;;;;;;;5070873;28;20196;-47
2023/06/13 05:20:56;;;;;;;5.20;2.73;;;;;;;;;;5070781;28;20205;-48
2023/06/13 05:23:23;;;;;;;3.60;2.80;;;;;;;;;;5071216;28;20200;-48
2023/06/13 05:25:49;;;;;;;3.93;2.63;;;;;;;;;;5071079;28;20332;-48
2023/06/13 05:28:19;;;;;;;2.57;2.30;;;;;;;;;;5071046;28;20288;-52
2023/06/13 05:30:45;;;;;;;4.57;2.60;;;;;;;;;;5070708;28;20236;-53
2023/06/13 05:33:11;;;;;;;4.90;2.70;;;;;;;;;;5070995;28;20206;-53
2023/06/13 05:35:37;;;;;;;3.17;2.87;;;;;;;;;;5070893;28;20203;-53
2023/06/13 05:38:03;;;;;;;3.50;2.87;;;;;;;;;;5070908;28;20274;-53
2023/06/13 05:40:31;;;;;;;4.80;3.00;;;;;;;;;;5070834;28;20312;-53
2023/06/13 05:42:56;;;;;;;5.63;3.00;;;;;;;;;;5070800;28;20284;-53
2023/06/13 05:45:22;;;;;;;4.03;2.80;;;;;;;;;;5070957;28;20202;-53
2023/06/13 05:47:48;;;;;;;5.50;3.10;;;;;;;;;;5070820;28;20276;-53
2023/06/13 05:50:14;;;;;;;4.10;2.80;;;;;;;;;;5070747;28;20660;-53
2023/06/13 05:52:40;;;;;;;4.93;2.90;;;;;;;;;;5070519;28;20252;-53
2023/06/13 05:55:07;;;;;;;3.03;2.70;;;;;;;;;;5070805;28;20200;-53
2023/06/13 05:57:41;;;;;;;4.43;2.93;;;;;;;;;;5070906;28;20199;-54
2023/06/13 06:00:13;;;;;;;3.13;2.57;;;;;;;;;;5070800;28;20202;-53
2023/06/13 06:02:39;;;;;;;4.43;2.80;;;;;;;;;;5070838;28;20195;-54
2023/06/13 06:05:08;;;;;;;4.73;2.83;;;;;;;;;;5070757;28;20691;-53
2023/06/13 06:07:34;;;;;;;5.67;2.93;;;;;;;;;;5070684;28;20257;-53
2023/06/13 06:10:00;;;;;;;4.97;3.00;;;;;;;;;;5070527;28;20811;-53
2023/06/13 06:12:26;;;;;;;3.77;2.60;;;;;;;;;;5072779;28;20227;-55
2023/06/13 06:14:54;;;;;;;4.07;2.80;;;;;;;;;;5074396;28;20278;-54
2023/06/13 06:17:20;;;;;;;4.63;2.90;;;;;;;;;;5074526;28;20219;-55
2023/06/13 06:19:46;;;;;;;3.97;2.80;;;;;;;;;;5074219;28;20418;-56
2023/06/13 06:22:12;;;;;;;3.53;3.07;;;;;;;;;;5074162;28;20658;-54
2023/06/13 06:24:39;;;;;;;4.23;2.70;;;;;;;;;;5074020;28;20285;-54
2023/06/13 06:27:05;;;;;;;3.50;2.80;;;;;;;;;;5074433;28;20284;-54
2023/06/13 06:29:31;;;;;;;3.10;2.80;;;;;;;;;;5074166;28;20665;-54
2023/06/13 06:31:59;;;;;;;3.53;2.70;;;;;;;;;;5073972;28;20273;-54
2023/06/13 06:34:25;;;;;;;3.40;2.80;;;;;;;;;;5074145;28;20204;-54
2023/06/13 06:36:51;;;;;;;4.70;2.87;;;;;;;;;;5074160;28;20270;-54
2023/06/13 06:39:17;;;;;;;2.93;2.67;;;;;;;;;;5073847;28;20644;-54
2023/06/13 06:41:43;;;;;;;3.20;2.90;;;;;;;;;;5074085;28;20296;-54
2023/06/13 06:44:09;;;;;;;4.27;2.77;;;;;;;;;;5074073;28;20603;-54
2023/06/13 06:46:35;;;;;;;3.77;2.70;;;;;;;;;;5073912;28;20195;-54
2023/06/13 06:49:02;;;;;;;4.97;2.93;;;;;;;;;;5073636;28;20202;-54
2023/06/13 06:51:29;;;;;;;3.43;2.57;;;;;;;;;;5073597;28;20234;-54
2023/06/13 06:53:56;;;;;;;3.93;2.73;;;;;;;;;;5073569;28;20219;-54
2023/06/13 06:56:22;;;;;;;3.57;2.50;;;;;;;;;;5073868;28;20200;-54
2023/06/13 06:58:48;;;;;;;3.17;2.80;;;;;;;;;;5073612;28;20753;-54
2023/06/13 07:01:15;;;;;;;5.23;2.60;;;;;;;;;;5073677;28;20210;-54
2023/06/13 07:03:42;;;;;;;4.63;2.80;;;;;;;;;;5073561;28;20232;-52
2023/06/13 07:06:11;;;;;;;5.00;3.00;;;;;;;;;;5073493;28;20200;-53
2023/06/13 07:08:37;;;;;;;3.40;2.93;;;;;;;;;;5073424;28;20212;-52
2023/06/13 07:11:03;;;;;;;4.77;3.10;;;;;;;;;;5073565;28;20237;-53
2023/06/13 07:13:29;;;;;;;4.53;2.97;;;;;;;;;;5073263;28;20242;-53
2023/06/13 07:15:55;;;;;;;3.47;2.53;;;;;;;;;;5073090;28;20778;-53
2023/06/13 07:18:21;;;;;;;3.77;2.97;;;;;;;;;;5073565;28;20286;-53
2023/06/13 07:20:47;;;;;;;5.30;2.70;;;;;;;;;;5073022;28;20297;-53
2023/06/13 07:23:15;;;;;;;3.57;2.90;;;;;;;;;;5072731;28;20197;-53
2023/06/13 07:25:41;;;;;;;6.03;3.33;;;;;;;;;;5072893;28;20242;-53
2023/06/13 07:28:07;;;;;;;3.50;2.80;;;;;;;;;;5073048;28;20198;-52
2023/06/13 07:30:33;;;;;;;3.33;2.73;;;;;;;;;;5073198;28;20195;-53
2023/06/13 07:33:01;;;;;;;5.87;3.53;;;;;;;;;;5072839;28;20699;-53
2023/06/13 07:35:27;;;;;;;3.43;3.00;;;;;;;;;;5072934;28;20799;-54
2023/06/13 07:37:54;;;;;;;4.57;3.47;;;;;;;;;;5072854;28;20301;-52
2023/06/13 07:40:21;;;;;;;5.13;3.33;;;;;;;;;;5073099;28;20208;-52
2023/06/13 07:42:47;;;;;;;6.23;3.20;;;;;;;;;;5072840;28;20204;-53
2023/06/13 07:45:14;;;;;;;4.03;3.43;;;;;;;;;;5072800;28;20265;-53
2023/06/13 07:47:40;;;;;;;5.37;3.40;;;;;;;;;;5072457;28;20251;-52
2023/06/13 07:50:07;;;;;;;3.93;3.20;;;;;;;;;;5072782;28;20204;-52
2023/06/13 07:52:33;;;;;;;3.87;3.30;;;;;;;;;;5072596;28;20260;-53
2023/06/13 07:54:59;;;;;;;6.40;4.10;;;;;;;;;;5072466;28;20200;-52
2023/06/13 07:57:26;;;;;;;5.87;3.43;;;;;;;;;;5072582;28;20199;-53
2023/06/13 07:59:54;;;;;;;4.07;3.40;;;;;;;;;;5072416;28;20747;-53
2023/06/13 08:02:20;;;;;;;5.73;3.70;;;;;;;;;;5072662;28;20199;-53
2023/06/13 08:04:46;;;;;;;4.60;3.73;;;;;;;;;;5072210;28;20226;-53
2023/06/13 08:07:12;;;;;;;4.60;3.73;;;;;;;;;;5072367;28;20658;-53
2023/06/13 08:09:38;;;;;;;8.13;4.30;;;;;;;;;;5072136;28;20195;-52
2023/06/13 08:12:04;;;;;;;4.80;3.87;;;;;;;;;;5072260;28;20630;-52
2023/06/13 08:14:31;;;;;;;5.03;3.83;;;;;;;;;;5072123;28;20195;-54
2023/06/13 08:16:57;;;;;;;5.53;4.77;;;;;;;;;;5071763;28;20207;-54
2023/06/13 08:19:23;;;;;;;9.00;4.10;;;;;;;;;;5072031;28;20204;-54
2023/06/13 08:21:49;;;;;;;5.17;4.43;;;;;;;;;;5071985;28;20681;-53
2023/06/13 08:24:15;;;;;;;5.23;4.37;;;;;;;;;;5071740;28;20319;-52
2023/06/13 08:26:41;;;;;;;5.73;4.30;;;;;;;;;;5071785;28;20248;-52
2023/06/13 08:29:07;;;;;;;5.53;4.90;;;;;;;;;;5071987;28;20199;-53
2023/06/13 08:31:35;;;;;;;7.93;4.90;;;;;;;;;;5071862;28;20303;-53
2023/06/13 08:34:01;;;;;;;7.03;4.17;;;;;;;;;;5070864;28;20295;-54
2023/06/13 08:36:27;;;;;;;4.47;3.87;;;;;;;;;;5071541;28;20297;-53
2023/06/13 08:38:53;;;;;;;4.50;3.90;;;;;;;;;;5071355;28;20663;-53
2023/06/13 08:41:20;;;;;;;7.30;4.20;;;;;;;;;;5071800;28;20189;-54
2023/06/13 08:43:46;;;;;;;4.07;3.53;;;;;;;;;;5071499;28;20203;-54
2023/06/13 08:46:12;;;;;;;5.23;4.13;;;;;;;;;;5071550;28;20213;-54
2023/06/13 08:48:40;;;;;;;5.37;3.30;;;;;;;;;;5071585;28;20205;-53
2023/06/13 08:51:06;;;;;;;3.50;3.20;;;;;;;;;;5071538;28;20210;-53
2023/06/13 08:53:32;;;;;;;6.77;4.00;;;;;;;;;;5071683;28;20195;-53
2023/06/13 08:56:02;;;;;;;6.43;3.83;;;;;;;;;;5071304;28;20198;-53
2023/06/13 08:58:29;;;;;;;5.43;3.87;;;;;;;;;;5071315;28;20284;-53
2023/06/13 09:00:57;;;;;;;5.90;3.53;;;;;;;;;;5071164;28;20203;-54
2023/06/13 09:03:25;;;;;;;5.93;3.73;;;;;;;;;;5071318;28;20196;-53
2023/06/13 09:05:52;;;;;;;8.07;3.87;;;;;;;;;;5071243;28;20583;-52
2023/06/13 09:08:18;;;;;;;6.50;3.57;;;;;;;;;;5071223;28;20200;-52
2023/06/13 09:10:45;;;;;;;5.37;3.67;;;;;;;;;;5071223;28;20210;-52
2023/06/13 09:13:12;;;;;;;6.07;3.30;;;;;;;;;;5071242;28;20220;-53
2023/06/13 09:15:38;;;;;;;4.43;3.33;;;;;;;;;;5071260;28;20200;-53
2023/06/13 09:18:05;;;;;;;6.33;3.67;;;;;;;;;;5071343;28;20214;-53
2023/06/13 09:20:31;;;;;;;4.60;3.10;;;;;;;;;;5071140;28;20205;-53
2023/06/13 09:22:58;;;;;;;4.40;3.17;;;;;;;;;;5071115;28;20195;-53
2023/06/13 09:25:25;;;;;;;3.97;3.50;;;;;;;;;;5070817;28;20244;-53
2023/06/13 09:27:51;;;;;;;6.80;3.30;;;;;;;;;;5071166;28;20204;-53
2023/06/13 09:30:17;;;;;;;5.27;2.73;;;;;;;;;;5071104;28;20285;-53
2023/06/13 09:32:47;;;;;;;5.70;3.97;;;;;;;;;;5070798;28;20232;-53
2023/06/13 09:35:13;;;;;;;8.67;3.40;;;;;;;;;;5071004;28;20194;-52
2023/06/13 09:37:39;;;;;;;5.73;4.00;;;;;;;;;;5071061;28;20206;-52
2023/06/13 09:40:09;;;;;;;4.87;3.40;;;;;;;;;;5070969;28;20507;-53
2023/06/13 09:42:35;;;;;;;3.03;2.73;;;;;;;;;;5071188;28;20206;-52
2023/06/13 09:45:06;;;;;;;7.20;3.00;;;;;;;;;;5070851;28;20607;-52
2023/06/13 09:47:33;;;;;;;3.87;2.90;;;;;;;;;;5074951;28;20200;-53
2023/06/13 09:50:00;;;;;;;3.07;2.80;;;;;;;;;;5074900;28;20300;-53
2023/06/13 09:52:27;;;;;;;3.83;2.90;;;;;;;;;;5074798;28;20226;-52
2023/06/13 09:54:53;;;;;;;6.43;3.23;;;;;;;;;;5074797;28;20225;-52
2023/06/13 09:57:21;;;;;;;6.63;2.90;;;;;;;;;;5075081;28;20224;-52
2023/06/13 09:59:48;;;;;;;3.97;2.90;;;;;;;;;;5074711;28;20210;-52
2023/06/13 10:02:14;;;;;;;7.47;2.93;;;;;;;;;;5074701;28;20211;-54
2023/06/13 10:04:40;;;;;;;4.17;2.87;;;;;;;;;;5074599;28;20621;-53
2023/06/13 10:07:06;;;;;;;3.70;2.83;;;;;;;;;;5074675;28;20199;-53
2023/06/13 10:09:32;;;;;;;4.80;3.00;;;;;;;;;;5074486;28;20200;-53
2023/06/13 10:12:00;;;;;;;4.60;3.00;;;;;;;;;;5074336;28;20229;-53
2023/06/13 10:14:27;;;;;;;6.33;2.87;;;;;;;;;;5074446;28;20265;-53
2023/06/13 10:16:57;;;;;;;8.10;3.03;;;;;;;;;;5074370;28;20205;-54
2023/06/13 10:19:24;;;;;;;4.47;3.00;;;;;;;;;;5074495;28;20199;-54
2023/06/13 10:21:51;;;;;;;5.80;3.40;;;;;;;;;;5074200;28;20292;-54
2023/06/13 10:24:17;;;;;;;6.17;3.17;;;;;;;;;;5073020;28;20473;-53
2023/06/13 10:26:44;;;;;;;5.50;3.00;;;;;;;;;;5074097;28;20900;-53
2023/06/13 10:29:34;;;;;;;4.27;3.10;;;;;;;;;;5072993;28;20519;-54
2023/06/13 10:32:08;;;;;;;4.68;3.20;;;;;;;;;;5015956;28;20934;-54
2023/06/13 10:34:51;;;;;;;3.75;2.97;;;;;;;;;;5073075;28;20452;-53
2023/06/13 10:37:30;;;;;;;4.13;3.38;;;;;;;;;;5072947;28;20414;-54
2023/06/13 10:40:05;;;;;;;3.90;3.20;;;;;;;;;;5072548;28;20762;-53
2023/06/13 10:42:36;;;;;;;5.43;3.23;;;;;;;;;;5073888;28;20191;-53
2023/06/13 10:45:03;;;;;;;3.33;3.03;;;;;;;;;;5073720;28;20205;-53
2023/06/13 10:47:31;;;;;;;3.90;3.00;;;;;;;;;;5073724;28;20301;-52
2023/06/13 10:49:59;;;;;;;4.93;3.70;;;;;;;;;;5073742;28;20201;-53
2023/06/13 10:52:25;;;;;;;4.20;3.07;;;;;;;;;;5073706;28;20588;-52
2023/06/13 10:54:55;;;;;;;3.50;3.20;;;;;;;;;;5073753;28;20237;-53
2023/06/13 10:57:22;;;;;;;4.17;3.00;;;;;;;;;;5073132;28;20197;-52
2023/06/13 10:59:49;;;;;;;4.17;3.30;;;;;;;;;;5073677;28;20212;-52
2023/06/13 11:02:15;;;;;;;4.60;3.70;;;;;;;;;;5073679;28;20330;-59
2023/06/13 11:04:45;;;;;;;8.20;3.30;;;;;;;;;;5073555;28;20217;-54
2023/06/13 11:07:28;;;;;;;5.00;3.47;;;;;;;;;;5073336;28;20209;-54
2023/06/13 11:10:01;;;;;;;3.77;3.10;;;;;;;;;;5073208;28;20219;-54
2023/06/13 11:12:28;;;;;;;3.97;3.40;;;;;;;;;;5073344;28;20259;-54
2023/06/13 11:14:56;;;;;;;5.17;3.73;;;;;;;;;;5073279;28;20545;-54
2023/06/13 11:17:22;;;;;;;4.30;3.20;;;;;;;;;;5073376;28;20198;-54
2023/06/13 11:19:52;;;;;;;3.70;3.40;;;;;;;;;;5073196;28;20252;-54
2023/06/13 11:22:21;;;;;;;7.43;3.57;;;;;;;;;;5073530;28;20278;-54
2023/06/13 11:24:47;;;;;;;7.13;3.57;;;;;;;;;;5072876;28;20261;-54
2023/06/13 11:27:16;;;;;;;4.33;3.07;;;;;;;;;;5073173;28;20226;-54
2023/06/13 11:29:43;;;;;;;3.90;3.13;;;;;;;;;;5072939;28;20251;-54
2023/06/13 11:32:09;;;;;;;7.23;3.10;;;;;;;;;;5072941;28;20729;-54
2023/06/13 11:34:38;;;;;;;4.33;3.20;;;;;;;;;;5073133;28;20199;-54
2023/06/13 11:37:08;;;;;;;4.07;3.30;;;;;;;;;;5072835;28;20666;-54
2023/06/13 11:39:38;;;;;;;3.93;3.20;;;;;;;;;;5072872;28;20224;-54
2023/06/13 11:42:04;;;;;;;7.37;3.33;;;;;;;;;;5072938;28;20190;-53
2023/06/13 11:44:30;;;;;;;6.17;3.20;;;;;;;;;;5072800;28;20211;-53
2023/06/13 11:46:57;;;;;;;4.73;3.33;;;;;;;;;;5072714;28;20251;-53
2023/06/13 11:49:23;;;;;;;4.93;3.40;;;;;;;;;;5072929;28;20630;-53
2023/06/13 11:51:49;;;;;;;4.80;3.47;;;;;;;;;;5072744;28;20237;-54
2023/06/13 11:54:16;;;;;;;4.80;3.20;;;;;;;;;;5072579;28;20231;-53
2023/06/13 11:56:51;;;;;;;4.40;3.37;;;;;;;;;;5072465;28;20550;-52
2023/06/13 11:59:18;;;;;;;4.77;3.10;;;;;;;;;;5072538;28;20205;-54
2023/06/13 12:01:47;;;;;;;4.50;3.37;;;;;;;;;;5072407;28;20640;-54
2023/06/13 12:04:14;;;;;;;3.73;3.30;;;;;;;;;;5072368;28;20248;-54
2023/06/13 12:06:40;;;;;;;4.70;2.97;;;;;;;;;;5072228;28;20209;-54
2023/06/13 12:09:07;;;;;;;5.27;3.23;;;;;;;;;;5072044;28;20195;-54
2023/06/13 12:11:34;;;;;;;5.53;3.37;;;;;;;;;;5072192;28;20301;-54
2023/06/13 12:14:01;;;;;;;4.00;3.37;;;;;;;;;;5071998;28;20203;-53
2023/06/13 12:16:31;;;;;;;4.27;3.10;;;;;;;;;;5072037;28;20206;-54
2023/06/13 12:18:59;;;;;;;3.53;3.23;;;;;;;;;;5071750;28;20770;-54
2023/06/13 12:21:27;;;;;;;3.33;3.00;;;;;;;;;;5072087;28;20559;-54
2023/06/13 12:23:54;;;;;;;4.17;3.30;;;;;;;;;;5071604;28;20195;-54
2023/06/13 12:26:20;;;;;;;4.10;2.80;;;;;;;;;;5064827;28;20201;-54
2023/06/13 12:28:47;;;;;;;3.30;3.00;;;;;;;;;;5071677;28;20658;-53
2023/06/13 12:31:14;;;;;;;4.03;3.50;;;;;;;;;;5071301;28;20207;-54
2023/06/13 12:33:41;;;;;;;4.27;3.47;;;;;;;;;;5071329;28;20297;-53
2023/06/13 12:36:09;;;;;;;6.67;4.00;;;;;;;;;;5071194;28;20281;-53
2023/06/13 12:38:35;;;;;;;3.40;3.10;;;;;;;;;;5071426;28;20201;-53
2023/06/13 12:41:11;;;;;;;4.10;3.20;;;;;;;;;;5071113;28;20205;-53
2023/06/13 12:43:41;;;;;;;5.17;2.90;;;;;;;;;;5067513;28;20620;-53
2023/06/13 12:46:08;;;;;;;4.67;3.40;;;;;;;;;;5071419;28;20230;-55
2023/06/13 12:48:37;;;;;;;3.90;3.50;;;;;;;;;;5071619;28;20631;-55
2023/06/13 12:51:03;;;;;;;4.70;3.30;;;;;;;;;;5071348;28;20224;-55
2023/06/13 12:53:31;;;;;;;6.23;3.27;;;;;;;;;;5071359;28;20276;-56
2023/06/13 12:56:00;;;;;;;3.73;3.30;;;;;;;;;;5071244;28;20240;-55
2023/06/13 12:58:33;;;;;;;3.37;3.07;;;;;;;;;;5071438;28;20241;-55
2023/06/13 13:00:59;;;;;;;4.70;3.30;;;;;;;;;;5071264;28;20224;-55
2023/06/13 13:03:27;;;;;;;5.10;3.30;;;;;;;;;;5071269;28;20199;-54
2023/06/13 13:05:53;;;;;;;6.97;3.07;;;;;;;;;;5071165;28;20244;-55
2023/06/13 13:08:19;;;;;;;3.97;2.93;;;;;;;;;;5071334;28;20285;-55
2023/06/13 13:10:47;;;;;;;4.17;3.37;;;;;;;;;;5071110;28;20663;-55
2023/06/13 13:13:13;;;;;;;4.47;3.20;;;;;;;;;;5071158;28;20253;-55
2023/06/13 13:15:39;;;;;;;3.50;3.20;;;;;;;;;;5071256;28;20199;-55
2023/06/13 13:18:06;;;;;;;5.03;3.30;;;;;;;;;;5071205;28;20210;-55
2023/06/13 13:20:34;;;;;;;3.43;3.13;;;;;;;;;;5070708;28;20197;-54
2023/06/13 13:23:03;;;;;;;6.70;2.93;;;;;;;;;;5070962;28;20193;-54
2023/06/13 13:25:30;;;;;;;4.20;2.90;;;;;;;;;;5071003;28;20232;-54
2023/06/13 13:27:56;;;;;;;3.50;3.20;;;;;;;;;;5070922;28;20200;-54
2023/06/13 13:30:23;;;;;;;5.00;3.23;;;;;;;;;;5071216;28;20195;-55
2023/06/13 13:32:52;;;;;;;5.43;2.90;;;;;;;;;;5070893;28;20732;-55
2023/06/13 13:35:18;;;;;;;4.67;2.90;;;;;;;;;;5070882;28;20710;-55
2023/06/13 13:37:45;;;;;;;4.80;3.00;;;;;;;;;;5070693;28;20369;-55
2023/06/13 13:40:12;;;;;;;3.97;3.20;;;;;;;;;;5070834;28;20290;-55
2023/06/13 13:42:38;;;;;;;3.30;2.90;;;;;;;;;;5071028;28;20191;-55
2023/06/13 13:45:05;;;;;;;3.33;3.03;;;;;;;;;;5070950;28;20278;-55
2023/06/13 13:47:31;;;;;;;5.13;3.37;;;;;;;;;;5070802;28;20225;-55
2023/06/13 13:49:57;;;;;;;4.63;3.43;;;;;;;;;;5070725;28;20200;-55
2023/06/13 13:52:23;;;;;;;5.03;3.20;;;;;;;;;;5070744;28;20227;-55
2023/06/13 13:54:51;;;;;;;4.80;2.97;;;;;;;;;;5070846;28;20250;-55
2023/06/13 13:57:17;;;;;;;6.47;3.20;;;;;;;;;;5070829;28;20249;-55
2023/06/13 13:59:44;;;;;;;5.50;3.23;;;;;;;;;;5070665;28;20653;-55
2023/06/13 14:02:10;;;;;;;4.90;3.03;;;;;;;;;;5070586;28;20229;-55
2023/06/13 14:04:36;;;;;;;4.97;3.03;;;;;;;;;;5070618;28;20591;-55
2023/06/13 14:07:02;;;;;;;4.90;3.27;;;;;;;;;;5070609;28;20200;-55
2023/06/13 14:09:28;;;;;;;5.07;3.20;;;;;;;;;;5070537;28;20202;-55
2023/06/13 14:11:56;;;;;;;3.53;3.23;;;;;;;;;;5070421;28;20306;-55
2023/06/13 14:14:23;;;;;;;5.47;3.40;;;;;;;;;;5070806;28;20253;-55
2023/06/13 14:16:50;;;;;;;3.33;2.90;;;;;;;;;;5070782;28;20286;-55
2023/06/13 14:19:16;;;;;;;3.83;2.90;;;;;;;;;;5070651;28;20237;-55
2023/06/13 14:21:42;;;;;;;5.50;3.23;;;;;;;;;;5070529;28;20201;-54
2023/06/13 14:24:08;;;;;;;3.43;3.00;;;;;;;;;;5070368;28;20326;-54
2023/06/13 14:26:34;;;;;;;3.43;3.10;;;;;;;;;;5070655;28;20206;-54
2023/06/13 14:29:01;;;;;;;5.57;3.03;;;;;;;;;;5070457;28;20220;-54
2023/06/13 14:31:28;;;;;;;3.13;2.83;;;;;;;;;;5070299;28;20673;-54
2023/06/13 14:33:55;;;;;;;5.23;3.67;;;;;;;;;;5073197;28;20217;-55
2023/06/13 14:36:21;;;;;;;4.93;3.27;;;;;;;;;;5074328;28;20196;-55
2023/06/13 14:38:48;;;;;;;4.07;3.27;;;;;;;;;;5072176;28;20195;-53
2023/06/13 14:41:14;;;;;;;5.07;3.40;;;;;;;;;;5065382;28;20548;-53
2023/06/13 14:43:40;;;;;;;4.17;3.47;;;;;;;;;;5074026;28;20229;-54